Time;durP1;ratioP1;P1;durP2;ratioP2;P2;SDS_P1;SDS_P2;PMS_P1;PMS_P2;Temp;Humidity;BMP_temperature;BMP_pressure;BME280_temperature;BME280_humidity;BME280_pressure;Samples;Min_cycle;Max_cycle;Signal;HPM_P1;HPM_P2
2023/07/09 00:01:38;;;;;;;231.77;220.77;;;;;;;;;;5015444;28;20053;-70
2023/07/09 00:04:04;;;;;;;229.10;218.13;;;;;;;;;;5019043;28;20041;-70
2023/07/09 00:06:29;;;;;;;234.00;222.82;;;;;;;;;;5016533;28;20044;-65
2023/07/09 00:08:55;;;;;;;234.70;223.55;;;;;;;;;;5015892;28;20025;-65
2023/07/09 00:11:20;;;;;;;238.18;226.85;;;;;;;;;;5015660;28;20026;-68
2023/07/09 00:13:45;;;;;;;244.48;232.75;;;;;;;;;;5013220;28;20329;-69
2023/07/09 00:16:18;;;;;;;226.50;215.68;;;;;;;;;;5016807;28;20640;-69
2023/07/09 00:18:44;;;;;;;197.70;188.10;;;;;;;;;;5013447;28;20133;-69
2023/07/09 00:21:09;;;;;;;212.30;202.02;;;;;;;;;;5016745;28;20658;-69
2023/07/09 00:23:38;;;;;;;195.85;186.25;;;;;;;;;;5016440;28;20145;-65
2023/07/09 00:26:09;;;;;;;175.82;167.25;;;;;;;;;;5014270;28;20029;-65
2023/07/09 00:28:35;;;;;;;175.02;166.52;;;;;;;;;;5016280;28;20755;-68
2023/07/09 00:31:00;;;;;;;159.70;151.88;;;;;;;;;;5014509;28;20041;-68
2023/07/09 00:33:31;;;;;;;148.60;141.25;;;;;;;;;;5014375;28;20127;-69
2023/07/09 00:35:57;;;;;;;102.35;97.18;;;;;;;;;;5014838;28;20025;-69
2023/07/09 00:38:23;;;;;;;62.67;59.45;;;;;;;;;;5016727;28;20030;-68
2023/07/09 00:41:06;;;;;;;43.88;41.50;;;;;;;;;;5015824;28;20041;-69
2023/07/09 00:43:36;;;;;;;37.05;35.10;;;;;;;;;;5013900;28;20060;-64
2023/07/09 00:46:31;;;;;;;41.67;39.38;;;;;;;;;;5014540;28;20089;-68
2023/07/09 00:49:05;;;;;;;37.33;35.28;;;;;;;;;;4984081;28;20073;-68
2023/07/09 00:51:33;;;;;;;45.35;42.85;;;;;;;;;;5018023;28;20107;-69
2023/07/09 00:54:07;;;;;;;45.25;42.70;;;;;;;;;;5015917;28;20468;-69
2023/07/09 00:56:40;;;;;;;51.53;48.88;;;;;;;;;;5016057;28;20056;-69
2023/07/09 00:59:09;;;;;;;53.28;50.55;;;;;;;;;;5016329;28;20463;-65
2023/07/09 01:01:34;;;;;;;57.30;54.40;;;;;;;;;;5015318;28;20041;-65
2023/07/09 01:04:03;;;;;;;54.13;51.35;;;;;;;;;;5013407;28;20482;-65
2023/07/09 01:06:54;;;;;;;57.25;54.38;;;;;;;;;;5016175;28;20037;-65
2023/07/09 01:09:21;;;;;;;56.00;53.10;;;;;;;;;;5012425;28;20033;-65
2023/07/09 01:11:46;;;;;;;66.45;63.13;;;;;;;;;;5015194;28;20203;-65
2023/07/09 01:14:19;;;;;;;64.43;61.17;;;;;;;;;;5013984;28;20123;-65
2023/07/09 01:16:49;;;;;;;62.22;59.03;;;;;;;;;;5016992;28;20114;-64
2023/07/09 01:19:16;;;;;;;62.22;58.90;;;;;;;;;;5016342;28;20033;-65
2023/07/09 01:21:42;;;;;;;65.22;61.92;;;;;;;;;;5014835;28;20664;-65
2023/07/09 01:24:35;;;;;;;61.55;58.47;;;;;;;;;;5016333;28;20042;-64
2023/07/09 01:27:02;;;;;;;58.75;55.72;;;;;;;;;;5014684;28;20160;-64
2023/07/09 01:29:33;;;;;;;64.57;61.05;;;;;;;;;;5015516;28;20040;-69
2023/07/09 01:31:58;;;;;;;59.85;56.83;;;;;;;;;;5017932;28;20363;-65
2023/07/09 01:34:25;;;;;;;66.47;63.13;;;;;;;;;;5018961;28;20075;-65
2023/07/09 01:36:51;;;;;;;62.08;58.60;;;;;;;;;;5021851;28;20022;-68
2023/07/09 01:39:17;;;;;;;62.42;59.22;;;;;;;;;;5019449;28;20460;-68
2023/07/09 01:41:42;;;;;;;56.83;53.92;;;;;;;;;;5018701;28;20076;-69
2023/07/09 01:44:07;;;;;;;56.63;53.60;;;;;;;;;;5020886;28;20069;-65
2023/07/09 01:46:33;;;;;;;51.47;48.72;;;;;;;;;;5021034;28;20076;-64
2023/07/09 01:48:58;;;;;;;49.25;46.75;;;;;;;;;;5018070;28;20087;-64
2023/07/09 01:51:24;;;;;;;48.47;45.95;;;;;;;;;;5017372;28;20037;-64
2023/07/09 01:53:50;;;;;;;50.33;47.75;;;;;;;;;;5020084;28;20025;-64
2023/07/09 01:56:15;;;;;;;39.00;36.72;;;;;;;;;;5019125;28;20045;-65
2023/07/09 01:58:41;;;;;;;43.30;41.05;;;;;;;;;;5016490;28;20034;-64
2023/07/09 02:01:06;;;;;;;36.75;34.88;;;;;;;;;;5019533;28;20037;-65
2023/07/09 02:03:32;;;;;;;29.92;28.35;;;;;;;;;;5018072;28;20040;-64
2023/07/09 02:05:59;;;;;;;42.75;40.50;;;;;;;;;;5020295;28;20038;-65
2023/07/09 02:08:25;;;;;;;24.73;23.33;;;;;;;;;;5019777;28;20033;-68
2023/07/09 02:10:50;;;;;;;29.67;28.08;;;;;;;;;;5019076;28;20441;-69
2023/07/09 02:13:16;;;;;;;27.60;25.67;;;;;;;;;;5016401;28;20037;-68
2023/07/09 02:15:43;;;;;;;26.50;24.95;;;;;;;;;;5017072;28;20025;-69
2023/07/09 02:18:15;;;;;;;28.15;26.65;;;;;;;;;;5019907;28;20034;-69
2023/07/09 02:20:40;;;;;;;25.27;23.90;;;;;;;;;;5018440;28;20551;-64
2023/07/09 02:23:07;;;;;;;29.38;27.75;;;;;;;;;;5016244;28;20125;-65
2023/07/09 02:25:32;;;;;;;29.98;27.92;;;;;;;;;;5019253;28;20042;-69
2023/07/09 02:27:58;;;;;;;34.20;32.42;;;;;;;;;;5021177;28;20033;-69
2023/07/09 02:30:23;;;;;;;27.33;25.77;;;;;;;;;;5016891;28;20033;-69
2023/07/09 02:32:48;;;;;;;31.48;29.15;;;;;;;;;;5017784;28;20042;-69
2023/07/09 02:35:14;;;;;;;29.80;28.17;;;;;;;;;;5018590;28;20033;-67
2023/07/09 02:37:40;;;;;;;22.85;21.58;;;;;;;;;;5015806;28;20098;-69
2023/07/09 02:40:08;;;;;;;26.98;25.52;;;;;;;;;;5015889;28;20037;-64
2023/07/09 02:42:33;;;;;;;25.35;23.95;;;;;;;;;;5014936;28;20171;-65
2023/07/09 02:44:58;;;;;;;25.52;24.10;;;;;;;;;;5016243;28;20116;-65
2023/07/09 02:47:24;;;;;;;28.77;27.23;;;;;;;;;;5019614;28;20022;-65
2023/07/09 02:49:49;;;;;;;26.85;25.42;;;;;;;;;;5019589;28;20087;-68
2023/07/09 02:52:14;;;;;;;32.90;31.15;;;;;;;;;;5017884;28;20026;-68
2023/07/09 02:54:40;;;;;;;37.30;35.35;;;;;;;;;;5016895;28;20374;-68
2023/07/09 02:57:06;;;;;;;40.30;38.22;;;;;;;;;;5017092;28;20037;-65
2023/07/09 02:59:32;;;;;;;44.08;41.38;;;;;;;;;;5017173;28;20042;-69
2023/07/09 03:01:58;;;;;;;40.75;38.65;;;;;;;;;;5016134;28;20033;-68
2023/07/09 03:04:24;;;;;;;38.08;36.13;;;;;;;;;;5016672;28;20471;-65
2023/07/09 03:06:49;;;;;;;39.72;37.67;;;;;;;;;;5018402;28;20045;-65
2023/07/09 03:09:14;;;;;;;40.25;38.00;;;;;;;;;;5015910;28;20415;-68
2023/07/09 03:11:40;;;;;;;43.90;41.67;;;;;;;;;;5015364;28;20041;-69
2023/07/09 03:14:05;;;;;;;48.83;46.33;;;;;;;;;;5015172;28;20695;-65
2023/07/09 03:16:34;;;;;;;48.10;45.58;;;;;;;;;;5016437;28;20041;-65
2023/07/09 03:19:00;;;;;;;45.28;42.90;;;;;;;;;;5017895;28;20044;-69
2023/07/09 03:21:27;;;;;;;42.50;40.33;;;;;;;;;;5016083;28;20038;-65
2023/07/09 03:23:53;;;;;;;49.13;46.50;;;;;;;;;;5017781;28;20034;-69
2023/07/09 03:26:19;;;;;;;51.28;48.65;;;;;;;;;;5016962;28;20060;-69
2023/07/09 03:28:45;;;;;;;52.65;50.00;;;;;;;;;;5015164;28;20038;-65
2023/07/09 03:31:10;;;;;;;62.08;58.83;;;;;;;;;;5013598;28;20030;-65
2023/07/09 03:33:36;;;;;;;74.43;70.72;;;;;;;;;;5017732;28;20121;-68
2023/07/09 03:36:04;;;;;;;75.93;72.05;;;;;;;;;;5017485;28;20443;-69
2023/07/09 03:38:30;;;;;;;87.80;83.43;;;;;;;;;;5016474;28;20037;-68
2023/07/09 03:40:55;;;;;;;92.78;88.07;;;;;;;;;;5017509;28;20047;-69
2023/07/09 03:43:21;;;;;;;80.38;76.35;;;;;;;;;;5014232;28;20041;-66
2023/07/09 03:45:47;;;;;;;86.20;81.90;;;;;;;;;;5014972;28;20147;-65
2023/07/09 03:48:14;;;;;;;59.83;56.83;;;;;;;;;;5015545;28;20064;-68
2023/07/09 03:50:39;;;;;;;59.58;56.45;;;;;;;;;;5017598;28;20117;-69
2023/07/09 03:53:05;;;;;;;56.30;53.45;;;;;;;;;;5014521;28;20122;-66
2023/07/09 03:55:31;;;;;;;38.38;36.33;;;;;;;;;;5017541;28;20415;-69
2023/07/09 03:57:57;;;;;;;39.50;37.45;;;;;;;;;;5015642;28;20072;-70
2023/07/09 04:00:24;;;;;;;42.45;40.28;;;;;;;;;;5015124;28;20025;-70
2023/07/09 04:02:49;;;;;;;33.63;31.83;;;;;;;;;;5016533;28;20457;-69
2023/07/09 04:05:15;;;;;;;26.70;25.25;;;;;;;;;;5016532;28;20026;-66
2023/07/09 04:07:40;;;;;;;18.38;17.35;;;;;;;;;;5014727;28;20045;-66
2023/07/09 04:10:06;;;;;;;17.00;16.08;;;;;;;;;;5014673;28;20484;-69
2023/07/09 04:12:32;;;;;;;19.60;18.50;;;;;;;;;;5015332;28;20026;-70
2023/07/09 04:14:57;;;;;;;21.48;19.95;;;;;;;;;;5013782;28;20337;-70
2023/07/09 04:17:23;;;;;;;26.98;25.40;;;;;;;;;;5015738;28;20065;-66
2023/07/09 04:19:50;;;;;;;28.20;26.63;;;;;;;;;;5020819;28;20128;-66
2023/07/09 04:22:15;;;;;;;27.48;26.02;;;;;;;;;;5017919;28;20033;-66
2023/07/09 04:24:40;;;;;;;30.35;28.60;;;;;;;;;;5014019;28;20037;-69
2023/07/09 04:27:06;;;;;;;30.25;28.65;;;;;;;;;;5016693;28;20100;-70
2023/07/09 04:29:35;;;;;;;33.13;31.40;;;;;;;;;;5014323;28;20092;-70
2023/07/09 04:32:11;;;;;;;32.90;31.20;;;;;;;;;;5014838;28;20068;-70
2023/07/09 04:34:38;;;;;;;35.25;33.17;;;;;;;;;;5012918;28;20132;-71
2023/07/09 04:37:04;;;;;;;38.03;36.00;;;;;;;;;;5018394;28;20039;-71
2023/07/09 04:39:29;;;;;;;38.08;36.13;;;;;;;;;;5014416;28;20037;-66
2023/07/09 04:41:54;;;;;;;41.60;39.45;;;;;;;;;;5013554;28;20060;-67
2023/07/09 04:44:20;;;;;;;38.28;36.25;;;;;;;;;;5017732;28;20068;-69
2023/07/09 04:46:45;;;;;;;32.88;31.13;;;;;;;;;;5017350;28;20025;-69
2023/07/09 04:49:12;;;;;;;33.83;31.95;;;;;;;;;;5013374;28;20107;-67
2023/07/09 04:51:38;;;;;;;29.38;27.77;;;;;;;;;;5016265;28;20030;-69
2023/07/09 04:54:03;;;;;;;23.90;22.60;;;;;;;;;;5015212;28;20110;-70
2023/07/09 04:56:30;;;;;;;22.80;21.60;;;;;;;;;;5014175;28;20064;-71
2023/07/09 04:58:56;;;;;;;23.95;22.60;;;;;;;;;;5012444;28;20575;-69
2023/07/09 05:01:21;;;;;;;21.95;20.75;;;;;;;;;;5012990;28;20071;-70
2023/07/09 05:03:47;;;;;;;24.40;23.10;;;;;;;;;;5014670;28;20480;-66
2023/07/09 05:06:13;;;;;;;27.25;25.77;;;;;;;;;;5026016;28;20080;-67
2023/07/09 05:08:39;;;;;;;19.27;18.20;;;;;;;;;;5018759;28;20087;-67
2023/07/09 05:11:05;;;;;;;20.20;19.02;;;;;;;;;;5016971;28;20033;-69
2023/07/09 05:13:30;;;;;;;20.58;19.48;;;;;;;;;;5018286;28;20033;-67
2023/07/09 05:15:55;;;;;;;20.77;19.65;;;;;;;;;;5020558;28;20115;-67
2023/07/09 05:18:21;;;;;;;22.52;21.33;;;;;;;;;;5020804;28;20052;-67
2023/07/09 05:20:47;;;;;;;24.80;23.23;;;;;;;;;;5017916;28;20089;-69
2023/07/09 05:23:12;;;;;;;35.78;33.88;;;;;;;;;;5021027;28;20460;-69
2023/07/09 05:25:37;;;;;;;32.00;30.25;;;;;;;;;;5022133;28;20033;-69
2023/07/09 05:28:04;;;;;;;52.05;49.05;;;;;;;;;;5022783;28;20114;-69
2023/07/09 05:30:30;;;;;;;60.95;57.65;;;;;;;;;;5016690;28;20099;-66
2023/07/09 05:32:57;;;;;;;69.50;65.90;;;;;;;;;;5016380;28;20447;-69
2023/07/09 05:35:25;;;;;;;65.78;61.17;;;;;;;;;;5020796;28;20067;-69
2023/07/09 05:37:51;;;;;;;79.03;75.05;;;;;;;;;;5018817;28;20147;-69
2023/07/09 05:40:16;;;;;;;90.55;86.05;;;;;;;;;;5018885;28;20768;-69
2023/07/09 05:42:41;;;;;;;103.68;98.47;;;;;;;;;;5018093;28;20045;-66
2023/07/09 05:45:07;;;;;;;111.75;106.18;;;;;;;;;;5017501;28;20092;-66
2023/07/09 05:47:32;;;;;;;129.80;123.18;;;;;;;;;;5018526;28;20163;-69
2023/07/09 05:49:58;;;;;;;148.10;140.65;;;;;;;;;;5017836;28;20038;-67
2023/07/09 05:52:24;;;;;;;158.13;150.23;;;;;;;;;;5017376;28;20042;-66
2023/07/09 05:54:51;;;;;;;163.02;154.75;;;;;;;;;;5018840;28;20519;-66
2023/07/09 05:57:17;;;;;;;203.45;193.35;;;;;;;;;;5020069;28;20036;-70
2023/07/09 05:59:42;;;;;;;217.15;206.38;;;;;;;;;;5017373;28;20037;-69
2023/07/09 06:02:12;;;;;;;224.45;213.02;;;;;;;;;;5016385;28;20049;-69
2023/07/09 06:04:38;;;;;;;182.32;173.38;;;;;;;;;;5016552;28;20041;-69
2023/07/09 06:07:03;;;;;;;149.48;141.98;;;;;;;;;;5018644;28;20115;-69
2023/07/09 06:09:29;;;;;;;155.73;147.85;;;;;;;;;;5019925;28;20038;-67
2023/07/09 06:11:55;;;;;;;183.38;173.93;;;;;;;;;;5018603;28;23373;-66
2023/07/09 06:14:20;;;;;;;155.85;148.10;;;;;;;;;;5018161;28;20518;-72
2023/07/09 06:16:45;;;;;;;78.85;74.88;;;;;;;;;;5019816;28;20773;-75
2023/07/09 06:19:11;;;;;;;133.95;126.68;;;;;;;;;;5015071;28;20462;-71
2023/07/09 06:21:36;;;;;;;68.20;64.72;;;;;;;;;;5017352;28;20563;-73
2023/07/09 06:24:02;;;;;;;114.35;108.63;;;;;;;;;;5016970;28;20115;-67
2023/07/09 06:26:27;;;;;;;82.03;77.88;;;;;;;;;;5019772;28;20107;-68
2023/07/09 06:28:52;;;;;;;40.85;38.65;;;;;;;;;;5018905;28;20124;-67
2023/07/09 06:31:20;;;;;;;36.15;33.88;;;;;;;;;;5019460;28;20037;-67
2023/07/09 06:33:47;;;;;;;35.17;33.33;;;;;;;;;;5016181;28;20025;-68
2023/07/09 06:36:12;;;;;;;37.17;35.25;;;;;;;;;;5017653;28;20037;-68
2023/07/09 06:38:37;;;;;;;39.17;37.15;;;;;;;;;;5018786;28;20491;-68
2023/07/09 06:41:03;;;;;;;37.38;35.42;;;;;;;;;;5018836;28;20029;-68
2023/07/09 06:43:28;;;;;;;45.25;42.65;;;;;;;;;;5015903;28;20043;-67
2023/07/09 06:45:56;;;;;;;60.90;57.83;;;;;;;;;;5017000;28;20034;-67
2023/07/09 06:48:22;;;;;;;92.40;87.82;;;;;;;;;;5018039;28;20037;-66
2023/07/09 06:50:48;;;;;;;116.95;111.18;;;;;;;;;;5018408;28;20448;-69
2023/07/09 06:53:13;;;;;;;77.40;73.53;;;;;;;;;;5017114;28;20092;-68
2023/07/09 06:55:39;;;;;;;179.48;170.68;;;;;;;;;;5020894;28;20156;-74
2023/07/09 06:58:06;;;;;;;205.27;195.30;;;;;;;;;;5015771;28;20044;-68
2023/07/09 07:00:34;;;;;;;194.25;184.60;;;;;;;;;;5019819;28;20041;-68
2023/07/09 07:02:59;;;;;;;192.05;182.70;;;;;;;;;;5026594;28;20121;-69
2023/07/09 07:05:24;;;;;;;223.07;212.25;;;;;;;;;;5017685;28;20453;-69
2023/07/09 07:07:50;;;;;;;279.20;265.63;;;;;;;;;;5019554;28;20077;-69
2023/07/09 07:10:15;;;;;;;177.88;169.23;;;;;;;;;;5016744;28;20529;-68
2023/07/09 07:12:43;;;;;;;196.52;186.98;;;;;;;;;;5017088;28;20041;-69
2023/07/09 07:15:09;;;;;;;89.80;85.32;;;;;;;;;;5014322;28;20449;-69
2023/07/09 07:17:35;;;;;;;85.68;81.38;;;;;;;;;;5018239;28;20037;-69
2023/07/09 07:20:00;;;;;;;110.72;105.25;;;;;;;;;;5018133;28;20357;-68
2023/07/09 07:22:26;;;;;;;105.53;100.22;;;;;;;;;;5016285;28;20722;-70
2023/07/09 07:24:51;;;;;;;117.95;112.03;;;;;;;;;;5014974;28;20479;-69
2023/07/09 07:27:17;;;;;;;73.35;69.65;;;;;;;;;;5014693;28;20155;-71
2023/07/09 07:29:42;;;;;;;64.88;61.58;;;;;;;;;;5016605;28;20077;-69
2023/07/09 07:32:08;;;;;;;73.70;69.97;;;;;;;;;;5015741;28;20107;-69
2023/07/09 07:34:34;;;;;;;77.75;73.65;;;;;;;;;;5015355;28;20025;-69
2023/07/09 07:36:59;;;;;;;96.47;91.70;;;;;;;;;;5017203;28;20045;-69
2023/07/09 07:39:24;;;;;;;110.18;104.75;;;;;;;;;;5012796;28;20391;-68
2023/07/09 07:41:50;;;;;;;92.72;88.00;;;;;;;;;;5016290;28;20438;-68
2023/07/09 07:44:16;;;;;;;85.57;81.35;;;;;;;;;;5014855;28;21416;-68
2023/07/09 07:46:42;;;;;;;137.52;130.73;;;;;;;;;;5016401;28;20439;-69
2023/07/09 07:49:07;;;;;;;130.32;123.82;;;;;;;;;;5014892;28;20141;-68
2023/07/09 07:51:33;;;;;;;87.60;83.18;;;;;;;;;;5014295;28;20033;-67
2023/07/09 07:53:59;;;;;;;150.57;143.13;;;;;;;;;;5018640;28;20045;-68
2023/07/09 07:56:25;;;;;;;164.73;156.63;;;;;;;;;;5015540;28;20041;-68
2023/07/09 07:58:51;;;;;;;168.02;159.70;;;;;;;;;;5016859;28;20304;-75
2023/07/09 08:01:16;;;;;;;131.15;124.28;;;;;;;;;;5018985;28;20092;-76
2023/07/09 08:03:42;;;;;;;151.15;143.65;;;;;;;;;;5015338;28;20044;-74
2023/07/09 08:06:07;;;;;;;162.52;154.55;;;;;;;;;;5016147;28;20045;-75
2023/07/09 08:08:33;;;;;;;123.95;117.70;;;;;;;;;;5019290;28;20048;-76
2023/07/09 08:11:07;;;;;;;115.95;110.15;;;;;;;;;;5014231;28;20037;-76
2023/07/09 08:13:37;;;;;;;104.38;99.13;;;;;;;;;;5016606;28;20044;-74
2023/07/09 08:16:04;;;;;;;113.95;108.30;;;;;;;;;;5016425;28;20083;-74
2023/07/09 08:18:29;;;;;;;98.75;93.82;;;;;;;;;;5019835;28;20112;-77
2023/07/09 08:20:55;;;;;;;96.22;91.45;;;;;;;;;;5016307;28;20411;-73
2023/07/09 08:23:20;;;;;;;94.70;89.95;;;;;;;;;;5017836;28;20038;-76
2023/07/09 08:25:56;;;;;;;96.10;91.28;;;;;;;;;;5014474;28;20125;-79
2023/07/09 08:28:22;;;;;;;77.72;73.72;;;;;;;;;;5016611;28;20308;-75
2023/07/09 08:30:47;;;;;;;63.63;60.28;;;;;;;;;;5016761;28;20038;-76
2023/07/09 08:33:12;;;;;;;62.85;59.55;;;;;;;;;;5011705;28;20173;-76
2023/07/09 08:35:38;;;;;;;66.57;63.22;;;;;;;;;;5013955;28;20045;-75
2023/07/09 08:38:03;;;;;;;66.93;63.53;;;;;;;;;;5017231;28;20159;-76
2023/07/09 08:40:29;;;;;;;59.08;55.92;;;;;;;;;;5016308;28;20097;-76
2023/07/09 08:43:14;;;;;;;67.07;63.70;;;;;;;;;;5016117;28;20506;-76
2023/07/09 08:45:50;;;;;;;84.13;79.88;;;;;;;;;;5017139;28;20042;-76
2023/07/09 08:48:32;;;;;;;86.65;80.63;;;;;;;;;;5015271;28;20034;-76
2023/07/09 08:51:04;;;;;;;72.57;68.78;;;;;;;;;;5015505;28;20061;-76
2023/07/09 08:53:48;;;;;;;76.30;72.20;;;;;;;;;;5018217;28;20037;-76
2023/07/09 08:56:15;;;;;;;66.20;62.90;;;;;;;;;;5016690;28;20364;-76
2023/07/09 08:58:41;;;;;;;67.35;63.97;;;;;;;;;;5015260;28;20865;-75
2023/07/09 09:01:16;;;;;;;54.15;51.28;;;;;;;;;;5016752;28;20095;-76
2023/07/09 09:03:53;;;;;;;41.95;39.80;;;;;;;;;;5014352;28;20091;-77
2023/07/09 09:06:26;;;;;;;49.10;46.55;;;;;;;;;;5017191;28;20033;-76
2023/07/09 09:09:29;;;;;;;36.92;35.03;;;;;;;;;;5015273;28;20047;-76
2023/07/09 09:12:23;;;;;;;34.33;32.47;;;;;;;;;;5015413;28;20068;-68
2023/07/09 09:14:57;;;;;;;24.30;22.80;;;;;;;;;;5013165;28;20103;-76
2023/07/09 09:17:26;;;;;;;32.17;30.48;;;;;;;;;;5014290;28;20041;-76
2023/07/09 09:20:03;;;;;;;34.15;32.30;;;;;;;;;;5014098;28;20492;-69
2023/07/09 09:22:42;;;;;;;30.67;29.00;;;;;;;;;;5016382;28;20045;-68
2023/07/09 09:25:24;;;;;;;23.00;21.70;;;;;;;;;;5014092;28;20048;-68
2023/07/09 09:27:49;;;;;;;26.00;24.50;;;;;;;;;;5014295;28;20434;-76
2023/07/09 09:30:19;;;;;;;24.35;22.83;;;;;;;;;;5015703;28;20152;-77
2023/07/09 09:32:54;;;;;;;35.88;33.88;;;;;;;;;;5029361;28;20033;-76
2023/07/09 09:35:20;;;;;;;30.40;27.98;;;;;;;;;;5015634;28;20196;-72
2023/07/09 09:37:54;;;;;;;35.63;33.72;;;;;;;;;;5012749;28;20494;-68
2023/07/09 09:40:23;;;;;;;32.30;30.50;;;;;;;;;;5018356;28;20041;-69
2023/07/09 09:42:56;;;;;;;35.87;34.00;;;;;;;;;;5015120;28;20415;-68
2023/07/09 09:45:32;;;;;;;34.05;32.25;;;;;;;;;;5016632;28;20159;-68
2023/07/09 09:48:00;;;;;;;21.33;20.13;;;;;;;;;;5014669;28;20049;-68
2023/07/09 09:50:30;;;;;;;27.00;25.60;;;;;;;;;;5015881;28;20131;-68
2023/07/09 09:52:55;;;;;;;27.58;26.08;;;;;;;;;;5020740;28;20398;-68
2023/07/09 09:55:29;;;;;;;17.52;16.52;;;;;;;;;;5026147;28;20036;-73
2023/07/09 09:57:56;;;;;;;20.77;19.67;;;;;;;;;;5017150;28;20099;-72
2023/07/09 10:00:25;;;;;;;19.30;18.20;;;;;;;;;;5016655;28;20040;-73
2023/07/09 10:02:57;;;;;;;22.70;21.47;;;;;;;;;;5019892;28;20021;-73
2023/07/09 10:05:31;;;;;;;18.40;17.30;;;;;;;;;;5025553;28;20048;-76
2023/07/09 10:08:09;;;;;;;19.85;18.65;;;;;;;;;;5022420;28;20029;-73
2023/07/09 10:10:36;;;;;;;20.15;18.95;;;;;;;;;;5019942;28;20041;-74
2023/07/09 10:13:39;;;;;;;26.13;24.75;;;;;;;;;;5020376;28;20130;-67
2023/07/09 10:16:14;;;;;;;35.40;33.53;;;;;;;;;;5017853;28;20147;-68
2023/07/09 10:18:59;;;;;;;38.13;36.15;;;;;;;;;;5019061;28;20573;-74
2023/07/09 10:21:51;;;;;;;48.08;45.58;;;;;;;;;;5015632;28;20072;-74
2023/07/09 10:24:37;;;;;;;37.40;35.40;;;;;;;;;;5023147;28;20048;-74
2023/07/09 10:27:07;;;;;;;39.50;37.35;;;;;;;;;;5017491;28;20116;-74
2023/07/09 10:29:56;;;;;;;32.63;30.67;;;;;;;;;;5025457;28;20115;-71
2023/07/09 10:32:45;;;;;;;27.20;25.77;;;;;;;;;;5025462;28;20124;-74
2023/07/09 10:35:15;;;;;;;54.00;51.25;;;;;;;;;;5010663;28;20064;-68
2023/07/09 10:38:19;;;;;;;56.78;53.88;;;;;;;;;;5019143;28;20387;-68
2023/07/09 10:40:51;;;;;;;59.97;56.97;;;;;;;;;;5014310;28;20042;-68
2023/07/09 10:43:30;;;;;;;55.50;52.20;;;;;;;;;;5016002;28;20581;-67
2023/07/09 10:46:01;;;;;;;59.67;56.47;;;;;;;;;;5016119;28;20034;-68
2023/07/09 10:48:59;;;;;;;72.35;68.65;;;;;;;;;;5016543;28;20272;-67
2023/07/09 10:51:48;;;;;;;73.82;70.13;;;;;;;;;;5014213;28;20053;-67
2023/07/09 10:54:22;;;;;;;;;;;;;;;;;;5019021;28;20124;-68
2023/07/09 10:56:57;;;;;;;58.72;55.72;;;;;;;;;;5017746;28;19913;-67
2023/07/09 10:59:29;;;;;;;55.92;52.55;;;;;;;;;;5018169;28;20041;-72
2023/07/09 11:02:12;;;;;;;92.30;87.43;;;;;;;;;;5016968;28;20049;-66
2023/07/09 11:04:46;;;;;;;74.72;70.97;;;;;;;;;;5014866;28;20041;-74
2023/07/09 11:07:17;;;;;;;91.25;86.75;;;;;;;;;;5014987;28;20440;-68
2023/07/09 11:09:45;;;;;;;81.65;77.60;;;;;;;;;;5019792;28;20045;-69
2023/07/09 11:12:20;;;;;;;88.95;84.55;;;;;;;;;;5016001;28;20430;-68
2023/07/09 11:14:51;;;;;;;63.38;60.17;;;;;;;;;;5016790;28;20044;-68
2023/07/09 11:17:21;;;;;;;46.58;44.17;;;;;;;;;;5016638;28;20061;-70
2023/07/09 11:19:53;;;;;;;87.03;82.68;;;;;;;;;;5014827;28;20041;-70
2023/07/09 11:22:40;;;;;;;64.25;61.05;;;;;;;;;;5017681;28;20459;-71
2023/07/09 11:25:26;;;;;;;63.47;60.30;;;;;;;;;;5031693;28;20037;-69
2023/07/09 11:28:01;;;;;;;71.90;68.28;;;;;;;;;;5015670;28;20787;-69
2023/07/09 11:30:28;;;;;;;62.10;58.97;;;;;;;;;;5017006;28;20034;-70
2023/07/09 11:32:58;;;;;;;112.47;106.90;;;;;;;;;;5015732;28;20036;-68
2023/07/09 11:35:26;;;;;;;129.27;122.82;;;;;;;;;;5017168;28;20049;-70
2023/07/09 11:37:55;;;;;;;129.00;122.60;;;;;;;;;;5014489;28;20045;-67
2023/07/09 11:40:22;;;;;;;91.65;86.93;;;;;;;;;;5016130;28;20363;-71
2023/07/09 11:42:48;;;;;;;103.13;98.00;;;;;;;;;;5016907;28;20087;-73
2023/07/09 11:45:16;;;;;;;121.15;115.13;;;;;;;;;;5014862;28;20583;-73
2023/07/09 11:48:19;;;;;;;117.30;111.50;;;;;;;;;;5017095;28;20034;-73
2023/07/09 11:50:48;;;;;;;109.35;103.85;;;;;;;;;;5017858;28;20033;-74
2023/07/09 11:53:42;;;;;;;102.95;97.85;;;;;;;;;;5014592;28;20456;-72
2023/07/09 11:56:08;;;;;;;79.70;75.72;;;;;;;;;;5012960;28;20084;-73
2023/07/09 11:58:34;;;;;;;121.40;115.38;;;;;;;;;;5013661;28;20463;-73
2023/07/09 12:01:01;;;;;;;125.68;119.32;;;;;;;;;;5015977;28;20061;-72
2023/07/09 12:03:34;;;;;;;135.63;128.85;;;;;;;;;;5015440;28;20065;-71
2023/07/09 12:06:22;;;;;;;136.95;130.15;;;;;;;;;;5012515;28;20407;-72
2023/07/09 12:08:49;;;;;;;129.70;123.22;;;;;;;;;;5013685;28;20040;-72
2023/07/09 12:11:29;;;;;;;142.32;135.23;;;;;;;;;;5016871;28;20049;-72
2023/07/09 12:14:05;;;;;;;135.82;129.10;;;;;;;;;;5020268;28;20558;-72
2023/07/09 12:16:35;;;;;;;152.95;145.25;;;;;;;;;;5014970;28;20084;-73
2023/07/09 12:19:00;;;;;;;155.15;147.40;;;;;;;;;;5015230;28;20038;-73
2023/07/09 12:21:26;;;;;;;145.15;137.90;;;;;;;;;;5014638;28;20037;-70
2023/07/09 12:23:55;;;;;;;148.73;141.27;;;;;;;;;;5014647;28;20033;-72
2023/07/09 12:26:21;;;;;;;127.15;120.78;;;;;;;;;;5015055;28;20048;-72
2023/07/09 12:28:53;;;;;;;131.93;125.38;;;;;;;;;;5014183;28;20025;-72
2023/07/09 12:31:26;;;;;;;119.88;113.97;;;;;;;;;;5013165;28;20359;-71
2023/07/09 12:33:54;;;;;;;130.75;124.05;;;;;;;;;;5014667;28;20030;-73
2023/07/09 12:36:20;;;;;;;125.32;118.75;;;;;;;;;;5014721;28;20337;-74
2023/07/09 12:38:49;;;;;;;126.25;119.93;;;;;;;;;;5012013;28;20037;-71
2023/07/09 12:41:27;;;;;;;136.88;129.90;;;;;;;;;;5013056;28;20170;-70
2023/07/09 12:43:54;;;;;;;152.57;144.97;;;;;;;;;;5017826;28;20034;-72
2023/07/09 12:46:21;;;;;;;110.95;105.47;;;;;;;;;;5016031;28;20342;-72
2023/07/09 12:48:47;;;;;;;138.13;131.20;;;;;;;;;;5016848;28;20036;-73
2023/07/09 12:51:24;;;;;;;134.35;127.15;;;;;;;;;;5018219;28;20044;-72
2023/07/09 12:54:16;;;;;;;129.55;123.03;;;;;;;;;;5015751;28;20234;-71
2023/07/09 12:56:41;;;;;;;101.05;96.05;;;;;;;;;;5016352;28;20487;-73
2023/07/09 12:59:20;;;;;;;114.13;108.43;;;;;;;;;;5014901;28;20095;-75
2023/07/09 13:02:07;;;;;;;132.02;125.45;;;;;;;;;;5014921;28;20215;-72
2023/07/09 13:04:36;;;;;;;140.68;133.52;;;;;;;;;;5017854;28;20061;-72
2023/07/09 13:07:02;;;;;;;130.60;124.05;;;;;;;;;;5015316;28;20037;-72
2023/07/09 13:09:28;;;;;;;127.57;121.28;;;;;;;;;;5015116;28;20021;-71
2023/07/09 13:11:55;;;;;;;119.57;113.60;;;;;;;;;;5013063;28;20452;-73
2023/07/09 13:14:22;;;;;;;116.70;110.93;;;;;;;;;;5012150;28;20037;-71
2023/07/09 13:16:48;;;;;;;91.38;86.88;;;;;;;;;;5016016;28;20120;-67
2023/07/09 13:19:13;;;;;;;100.15;95.15;;;;;;;;;;5014331;28;20428;-70
2023/07/09 13:21:40;;;;;;;104.22;99.03;;;;;;;;;;5013645;28;20048;-72
2023/07/09 13:24:19;;;;;;;114.70;109.00;;;;;;;;;;5015910;28;20102;-71
2023/07/09 13:26:46;;;;;;;95.88;91.15;;;;;;;;;;5018232;28;20529;-71
2023/07/09 13:29:14;;;;;;;100.68;95.55;;;;;;;;;;5015606;28;20029;-68
2023/07/09 13:31:39;;;;;;;106.68;101.38;;;;;;;;;;5019325;28;20045;-70
2023/07/09 13:34:16;;;;;;;98.47;93.57;;;;;;;;;;5016595;28;20029;-71
2023/07/09 13:36:41;;;;;;;99.35;94.43;;;;;;;;;;5020787;28;20029;-70
2023/07/09 13:39:10;;;;;;;106.80;101.28;;;;;;;;;;5017576;28;20038;-72
2023/07/09 13:41:37;;;;;;;111.32;105.82;;;;;;;;;;5020749;28;20034;-71
2023/07/09 13:44:11;;;;;;;121.70;115.55;;;;;;;;;;5019005;28;20364;-72
2023/07/09 13:46:37;;;;;;;114.15;107.80;;;;;;;;;;5018836;28;20057;-71
2023/07/09 13:49:03;;;;;;;120.20;114.28;;;;;;;;;;5019833;28;20059;-70
2023/07/09 13:51:29;;;;;;;123.07;116.95;;;;;;;;;;5017391;28;20033;-70
2023/07/09 13:53:57;;;;;;;127.15;120.85;;;;;;;;;;5018268;28;20481;-71
2023/07/09 13:56:24;;;;;;;127.43;121.13;;;;;;;;;;5021295;28;20033;-70
2023/07/09 13:58:50;;;;;;;152.98;145.38;;;;;;;;;;5018533;28;20038;-72
2023/07/09 14:01:22;;;;;;;146.77;139.20;;;;;;;;;;5017938;28;20419;-73
2023/07/09 14:03:48;;;;;;;167.20;158.90;;;;;;;;;;5020608;28;20498;-76
2023/07/09 14:06:16;;;;;;;170.30;161.85;;;;;;;;;;5019010;28;20132;-74
2023/07/09 14:08:41;;;;;;;138.77;131.88;;;;;;;;;;5017957;28;20042;-70
2023/07/09 14:11:12;;;;;;;139.18;132.30;;;;;;;;;;5019077;28;20053;-72
2023/07/09 14:13:38;;;;;;;129.68;123.20;;;;;;;;;;5015879;28;20123;-75
2023/07/09 14:16:04;;;;;;;143.63;136.38;;;;;;;;;;5017298;28;20517;-73
2023/07/09 14:18:29;;;;;;;150.73;143.18;;;;;;;;;;5016880;28;20096;-74
2023/07/09 14:20:56;;;;;;;184.23;175.10;;;;;;;;;;5018300;28;20034;-74